Frenchville, ME

12:05 PM EDT on August 29, 2014 (GMT -0400)
K1FTK | Change Station
CLOSE
Current Station
Personal Weather Station
Location: Saint Agatha, ME
Elevation: 825 ft
Nearby Weather Stations

Elev 825 ft 47.25 °N, 68.35 °W | Updated 14 minutes ago

Partly Cloudy
Partly Cloudy
65.0 °F
Feels Like 65.0 °F
N
4.0
Wind Variable Wind from NNW
Gusts 11.0 mph

Today
High -- | Low -- °F
--% Chance of Precip.
Yesterday
High -- | Low -- °F
Precip. -- in
5:48 AM 7:19 PM
Waxing Crescent, 15% visible
Pressure 30.17 in
Visibility 10.0 miles
Clouds Few 4200 ft
Dew Point 47 °F
Humidity 52%
Rainfall 0.00 in
Snow Depth Not available.
UV 7 out of 12
Pollen 7.30 out of 12
PM2.5 Good
Flu Activity Not available.
METAR KFVE 291553Z AUTO 30011KT 10SM FEW042 17/07 A3017 RMK AO2 SLP215 T01720067

More Conditions Fewer Conditions

Pressure 30.17 in
Visibility 10.0 miles
Clouds Few 4200 ft
Dew Point 47 °F
Humidity 52%
Rainfall 0.00 in
Snow Depth Not available.
UV 7 out of 12
Pollen 7.30 out of 12
PM2.5 Good
Flu Activity Not available.
METAR KFVE 291553Z AUTO 30011KT 10SM FEW042 17/07 A3017 RMK AO2 SLP215 T01720067

More Conditions Fewer Conditions

10-Day Weather Forecast

Almanac

Astronomy

Aug. 29, 2014 Rise Set
Actual Time 5:48 AM EDT 7:19 PM EDT
Civil Twilight 5:16 AM EDT 7:51 PM EDT
Nautical Twilight 4:37 AM EDT 8:30 PM EDT
Astronomical Twilight 3:55 AM EDT 9:11 PM EDT
Moon 9:52 AM EDT 8:55 PM EDT
Length of Visible Light 14h 34m
Length of Day
13h 30m
Tomorrow will be 3m 15s shorter.
Waxing Crescent, 15% of the Moon is Illuminated
Today
Waxing Crescent
Sep 2
First Quarter
Sep 8
Full
Sep 15
Last Quarter
Sep 24
New

Today's Extremes

State Highs State Lows

Community

WunderPhotos

Upload Photos

1,748,270 photos uploaded!

Nearby

Air Quality

  Air Quality AQ Index Pollutant
Yesterday Good
OZONE
Yesterday Good
PM2.5
Current Good
PM2.5
Friday Good
OZONE
Friday Good
PM2.5
Saturday Good
OZONE
Saturday Good
PM2.5

Snow Depth

Station Depth Elevation
No new snow has been reported.

Earthquake Activity

City Distance Mag. Time & Date
No recent earthquake activity has been reported nearby.
Minimum magnitude displayed is 2.5.

Coastal Water Temperatures

Place Temperature
No Stations Reporting

Nearby Weather Stations